EGMC - Southend-On-Sea
Distance from station: E 5mi, 14km
Updated: 04/26/2018 9:50pm
Clear
Clear
 Wind from S
Wind: S 2 mph , 4 km/h
Temperature: 46°F , 8°C
Dew Point: 43°F , 6°C
Humidity: 87%
Barometer: 29.85 inHg , 1011 hPa
Summary: Clear
Visibility: greater than 7 miles , 10 km
2018/04/27 04:50 EGMC 270450Z 18002KT CAVOK 08/06 Q1011